Time;durP1;ratioP1;P1;durP2;ratioP2;P2;SDS_P1;SDS_P2;PMS_P1;PMS_P2;Temp;Humidity;BMP_temperature;BMP_pressure;BME280_temperature;BME280_humidity;BME280_pressure;Samples;Min_cycle;Max_cycle;Signal;HPM_P1;HPM_P2
2023/04/29 00:02:01;;;;;;;56.03;38.90;;;9.60;99.90;;;;;;4993713;28;20405;-75
2023/04/29 00:04:27;;;;;;;55.75;36.75;;;9.60;99.90;;;;;;5008911;28;20033;-75
2023/04/29 00:06:53;;;;;;;54.50;37.30;;;9.50;99.90;;;;;;5008390;28;20038;-75
2023/04/29 00:09:20;;;;;;;47.53;36.33;;;9.50;99.90;;;;;;4998128;28;20108;-75
2023/04/29 00:11:46;;;;;;;53.42;38.28;;;9.50;99.90;;;;;;4992014;28;20050;-75
2023/04/29 00:14:12;;;;;;;48.10;35.75;;;9.50;99.90;;;;;;4992679;28;20046;-75
2023/04/29 00:16:38;;;;;;;53.60;35.95;;;9.50;99.90;;;;;;5007141;28;20453;-75
2023/04/29 00:19:04;;;;;;;44.72;32.97;;;9.50;99.90;;;;;;5007538;28;20092;-75
2023/04/29 00:21:30;;;;;;;42.08;34.58;;;9.50;99.90;;;;;;5024625;28;20362;-76
2023/04/29 00:23:56;;;;;;;46.00;35.08;;;9.50;99.90;;;;;;5008649;28;20474;-75
2023/04/29 00:26:22;;;;;;;49.78;33.88;;;9.50;99.90;;;;;;5026292;28;20417;-75
2023/04/29 00:28:48;;;;;;;40.40;31.90;;;9.50;99.90;;;;;;5013325;28;20326;-75
2023/04/29 00:31:14;;;;;;;44.90;31.95;;;9.40;99.90;;;;;;5011370;28;20049;-75
2023/04/29 00:33:39;;;;;;;43.33;32.92;;;9.40;99.90;;;;;;4995973;28;20516;-74
2023/04/29 00:36:06;;;;;;;41.20;31.63;;;9.40;99.90;;;;;;5013188;28;20030;-75
2023/04/29 00:38:32;;;;;;;40.58;31.75;;;9.40;99.90;;;;;;5005269;28;20050;-76
2023/04/29 00:40:57;;;;;;;40.13;29.65;;;9.40;99.90;;;;;;5030439;28;20488;-76
2023/04/29 00:43:23;;;;;;;35.45;27.48;;;9.30;99.90;;;;;;4996879;28;20137;-76
2023/04/29 00:45:49;;;;;;;37.03;28.85;;;9.30;99.90;;;;;;5013014;28;20157;-75
2023/04/29 00:48:16;;;;;;;37.63;28.42;;;9.30;99.90;;;;;;5012393;28;20038;-75
2023/04/29 00:50:42;;;;;;;34.53;27.60;;;9.30;99.90;;;;;;5012601;28;20055;-75
2023/04/29 00:53:11;;;;;;;38.97;28.13;;;9.30;99.90;;;;;;5010326;28;20048;-75
2023/04/29 00:55:38;;;;;;;42.78;30.35;;;9.20;99.90;;;;;;5012145;28;20550;-75
2023/04/29 00:58:03;;;;;;;32.58;26.67;;;9.30;99.90;;;;;;5011549;28;20075;-76
2023/04/29 01:00:29;;;;;;;38.00;29.60;;;9.30;99.90;;;;;;5012652;28;20049;-76
2023/04/29 01:02:56;;;;;;;37.17;27.83;;;9.20;99.90;;;;;;5011257;28;20101;-76
2023/04/29 01:05:25;;;;;;;38.95;27.48;;;9.30;99.90;;;;;;5013166;28;20402;-75
2023/04/29 01:08:21;;;;;;;43.85;28.17;;;9.30;99.90;;;;;;4995769;28;20200;-76
2023/04/29 01:10:58;;;;;;;44.95;29.48;;;9.20;99.90;;;;;;5019422;28;20143;-75
2023/04/29 01:13:33;;;;;;;41.08;29.88;;;9.20;99.90;;;;;;4996073;28;20038;-75
2023/04/29 01:16:05;;;;;;;45.65;31.30;;;9.30;99.90;;;;;;4996233;28;20386;-75
2023/04/29 01:18:40;;;;;;;41.90;29.30;;;9.30;99.90;;;;;;5023590;28;20160;-76
2023/04/29 01:21:05;;;;;;;45.53;32.72;;;9.30;99.90;;;;;;4995535;28;20045;-76
2023/04/29 01:23:31;;;;;;;47.67;31.92;;;9.30;99.90;;;;;;4995347;28;20041;-76
2023/04/29 01:25:57;;;;;;;44.55;31.92;;;9.30;99.90;;;;;;5012635;28;20060;-77
2023/04/29 01:28:47;;;;;;;41.70;32.22;;;9.30;99.90;;;;;;5010289;28;20120;-76
2023/04/29 01:31:40;;;;;;;47.40;33.17;;;9.30;99.90;;;;;;5011657;28;20042;-76
2023/04/29 01:34:45;;;;;;;45.38;32.75;;;9.30;99.90;;;;;;5027473;28;20054;-75
2023/04/29 01:37:26;;;;;;;39.35;30.95;;;9.30;99.90;;;;;;4961849;28;20502;-76
2023/04/29 01:40:32;;;;;;;46.88;33.25;;;9.30;99.90;;;;;;4969317;28;20097;-76
2023/04/29 01:43:03;;;;;;;47.90;32.83;;;9.30;99.90;;;;;;5016912;28;20141;-76
2023/04/29 01:45:31;;;;;;;47.67;33.10;;;9.20;99.90;;;;;;5011896;28;20486;-76
2023/04/29 01:47:58;;;;;;;43.92;32.83;;;9.20;99.90;;;;;;5010212;28;20044;-76
2023/04/29 01:50:24;;;;;;;41.63;30.33;;;9.20;99.90;;;;;;5010848;28;20111;-76
2023/04/29 01:52:49;;;;;;;45.47;31.58;;;9.20;99.90;;;;;;5027129;28;20038;-76
2023/04/29 01:55:15;;;;;;;41.78;30.17;;;9.20;99.90;;;;;;4994942;28;20343;-75
2023/04/29 01:57:41;;;;;;;41.10;30.55;;;9.20;99.90;;;;;;5001597;28;20046;-75
2023/04/29 02:00:07;;;;;;;40.30;30.85;;;9.20;99.90;;;;;;5011015;28;20042;-75
2023/04/29 02:02:33;;;;;;;41.65;28.58;;;9.20;99.90;;;;;;5026972;28;20069;-75
2023/04/29 02:04:59;;;;;;;40.03;28.92;;;9.20;99.90;;;;;;5010760;28;20084;-75
2023/04/29 02:07:25;;;;;;;41.72;28.15;;;9.20;99.90;;;;;;4994952;28;20552;-75
2023/04/29 02:09:51;;;;;;;39.42;28.52;;;9.20;99.90;;;;;;5011745;28;20136;-76
2023/04/29 02:12:16;;;;;;;39.67;28.77;;;9.20;99.90;;;;;;5027450;28;20521;-75
2023/04/29 02:14:42;;;;;;;39.90;28.33;;;9.20;99.90;;;;;;5025398;28;20046;-74
2023/04/29 02:17:08;;;;;;;32.63;26.50;;;9.20;99.90;;;;;;5010702;28;20548;-75
2023/04/29 02:19:34;;;;;;;38.22;26.85;;;9.20;99.90;;;;;;5009227;28;20065;-74
2023/04/29 02:21:59;;;;;;;33.75;24.73;;;9.10;99.90;;;;;;5010869;28;20041;-74
2023/04/29 02:24:25;;;;;;;34.38;23.48;;;9.20;99.90;;;;;;5010799;28;20549;-74
2023/04/29 02:26:52;;;;;;;31.65;24.42;;;9.10;99.90;;;;;;4993586;28;20386;-75
2023/04/29 02:29:17;;;;;;;31.30;23.80;;;9.10;99.90;;;;;;5026327;28;20409;-75
2023/04/29 02:31:43;;;;;;;31.60;23.33;;;9.10;99.90;;;;;;4997020;28;20049;-75
2023/04/29 02:34:09;;;;;;;31.80;24.45;;;9.10;99.90;;;;;;4994219;28;20044;-75
2023/04/29 02:36:35;;;;;;;30.63;24.33;;;9.10;99.90;;;;;;4988297;28;20103;-75
2023/04/29 02:39:01;;;;;;;31.90;24.35;;;9.10;99.90;;;;;;4993933;28;20065;-75
2023/04/29 02:41:26;;;;;;;32.72;24.33;;;9.10;99.90;;;;;;5001359;28;20042;-75
2023/04/29 02:43:52;;;;;;;31.05;24.13;;;9.10;99.90;;;;;;5010929;28;20381;-75
2023/04/29 02:46:18;;;;;;;31.75;23.08;;;9.10;99.90;;;;;;5009429;28;20112;-74
2023/04/29 02:48:44;;;;;;;37.38;23.83;;;9.10;99.90;;;;;;5010572;28;20041;-74
2023/04/29 02:51:10;;;;;;;33.00;23.63;;;9.10;99.90;;;;;;4999496;28;20581;-75
2023/04/29 02:53:36;;;;;;;36.05;22.48;;;9.10;99.90;;;;;;5011403;28;20038;-75
2023/04/29 02:56:02;;;;;;;34.80;23.58;;;9.10;99.90;;;;;;5011310;28;20085;-74
2023/04/29 02:58:27;;;;;;;34.22;23.33;;;9.00;99.90;;;;;;5010839;28;20396;-74
2023/04/29 03:00:53;;;;;;;33.38;23.77;;;9.10;99.90;;;;;;5010882;28;20137;-75
2023/04/29 03:03:19;;;;;;;32.03;23.00;;;9.10;99.90;;;;;;5003179;28;20061;-74
2023/04/29 03:05:44;;;;;;;31.05;23.02;;;9.10;99.90;;;;;;4994730;28;20414;-74
2023/04/29 03:08:10;;;;;;;29.75;22.83;;;9.00;99.90;;;;;;5010861;28;20053;-74
2023/04/29 03:10:36;;;;;;;32.78;22.15;;;9.00;99.90;;;;;;5008242;28;20046;-75
2023/04/29 03:13:01;;;;;;;32.40;22.42;;;9.00;99.90;;;;;;5010076;28;20077;-75
2023/04/29 03:15:28;;;;;;;30.42;21.95;;;9.00;99.90;;;;;;5002568;28;20042;-74
2023/04/29 03:17:54;;;;;;;34.05;22.38;;;9.00;99.90;;;;;;5007145;28;20052;-75
2023/04/29 03:20:20;;;;;;;29.58;21.45;;;9.00;99.90;;;;;;5010127;28;20049;-74
2023/04/29 03:22:46;;;;;;;28.17;21.25;;;9.00;99.90;;;;;;5009461;28;20034;-74
2023/04/29 03:25:12;;;;;;;29.88;22.08;;;9.00;99.90;;;;;;4993796;28;20435;-75
2023/04/29 03:27:38;;;;;;;33.67;21.80;;;9.00;99.90;;;;;;4993678;28;20045;-75
2023/04/29 03:30:05;;;;;;;30.40;21.92;;;9.00;99.90;;;;;;4993591;28;20049;-75
2023/04/29 03:32:30;;;;;;;32.80;22.48;;;9.00;99.90;;;;;;5009008;28;20425;-75
2023/04/29 03:34:56;;;;;;;35.10;21.92;;;9.00;99.90;;;;;;5024898;28;20129;-75
2023/04/29 03:37:22;;;;;;;34.38;22.88;;;9.00;99.90;;;;;;5009498;28;20069;-74
2023/04/29 03:39:47;;;;;;;32.47;22.67;;;9.00;99.90;;;;;;5010062;28;20038;-76
2023/04/29 03:42:13;;;;;;;30.58;22.52;;;8.90;99.90;;;;;;5009719;28;20457;-75
2023/04/29 03:44:39;;;;;;;34.92;23.60;;;8.90;99.90;;;;;;5009680;28;20084;-73
2023/04/29 03:47:05;;;;;;;30.95;23.25;;;8.90;99.90;;;;;;5009163;28;20041;-75
2023/04/29 03:49:31;;;;;;;33.58;22.52;;;8.90;99.90;;;;;;4993351;28;20104;-75
2023/04/29 03:51:57;;;;;;;36.28;23.73;;;8.90;99.90;;;;;;5009243;28;20046;-75
2023/04/29 03:54:23;;;;;;;34.60;23.73;;;8.90;99.90;;;;;;5009548;28;20042;-75
2023/04/29 03:56:48;;;;;;;32.85;24.48;;;8.90;99.90;;;;;;5010792;28;20054;-75
2023/04/29 03:59:14;;;;;;;33.47;24.35;;;8.90;99.90;;;;;;4993190;28;20038;-75
2023/04/29 04:01:40;;;;;;;32.75;23.63;;;8.90;99.90;;;;;;5008095;28;20046;-75
2023/04/29 04:04:05;;;;;;;35.13;23.27;;;8.90;99.90;;;;;;5009450;28;20111;-75
2023/04/29 04:06:31;;;;;;;30.35;23.23;;;8.90;99.90;;;;;;4992703;28;20041;-75
2023/04/29 04:08:57;;;;;;;33.78;24.85;;;8.90;99.90;;;;;;5008833;28;20042;-75
2023/04/29 04:11:24;;;;;;;34.53;23.45;;;8.80;99.90;;;;;;5008825;28;20399;-75
2023/04/29 04:13:49;;;;;;;36.22;24.60;;;8.80;99.90;;;;;;5008680;28;20050;-75
2023/04/29 04:16:15;;;;;;;33.63;24.60;;;8.80;99.90;;;;;;4995731;28;20047;-75
2023/04/29 04:18:41;;;;;;;33.88;24.20;;;8.80;99.90;;;;;;4997019;28;20046;-75
2023/04/29 04:21:14;;;;;;;33.97;24.02;;;8.80;99.90;;;;;;5009349;28;20499;-76
2023/04/29 04:23:39;;;;;;;32.15;23.75;;;8.80;99.90;;;;;;5025115;28;20049;-76
2023/04/29 04:26:06;;;;;;;30.50;22.77;;;8.80;99.90;;;;;;4992593;28;20042;-76
2023/04/29 04:28:31;;;;;;;36.25;23.33;;;8.80;99.90;;;;;;5009097;28;20045;-75
2023/04/29 04:30:57;;;;;;;31.27;22.40;;;8.80;99.90;;;;;;5009299;28;20060;-75
2023/04/29 04:33:24;;;;;;;33.70;23.40;;;8.80;99.90;;;;;;5006306;28;20128;-75
2023/04/29 04:35:50;;;;;;;33.72;23.40;;;8.70;99.90;;;;;;4982105;28;20085;-75
2023/04/29 04:38:16;;;;;;;34.38;23.55;;;8.70;99.90;;;;;;5008022;28;20037;-75
2023/04/29 04:40:42;;;;;;;31.20;23.20;;;8.70;99.90;;;;;;4992034;28;20532;-74
2023/04/29 04:43:08;;;;;;;30.63;21.60;;;8.70;99.90;;;;;;5008224;28;20049;-74
2023/04/29 04:45:34;;;;;;;30.63;22.02;;;8.70;99.90;;;;;;5007327;28;20038;-75
2023/04/29 04:48:00;;;;;;;29.70;22.30;;;8.70;99.90;;;;;;5007470;28;20495;-75
2023/04/29 04:50:29;;;;;;;31.35;21.17;;;8.70;99.90;;;;;;4991810;28;20050;-75
2023/04/29 04:52:55;;;;;;;34.60;21.50;;;8.70;99.90;;;;;;5009162;28;20049;-75
2023/04/29 04:55:21;;;;;;;30.52;21.40;;;8.70;99.90;;;;;;5007221;28;20049;-76
2023/04/29 04:57:47;;;;;;;32.00;19.98;;;8.70;99.90;;;;;;5008880;28;20265;-75
2023/04/29 05:00:13;;;;;;;28.92;20.27;;;8.80;99.90;;;;;;5023906;28;20124;-75
2023/04/29 05:02:39;;;;;;;29.38;19.77;;;8.70;99.90;;;;;;5024077;28;20425;-74
2023/04/29 05:05:05;;;;;;;34.47;19.88;;;8.80;99.90;;;;;;5008412;28;20060;-74
2023/04/29 05:07:32;;;;;;;28.88;19.35;;;8.80;99.90;;;;;;5003149;28;20615;-75
2023/04/29 05:09:57;;;;;;;31.23;19.67;;;8.80;99.90;;;;;;5008299;28;20045;-75
2023/04/29 05:12:29;;;;;;;33.22;19.42;;;8.80;99.90;;;;;;5007848;28;20057;-75
2023/04/29 05:14:57;;;;;;;31.90;18.90;;;8.80;99.90;;;;;;5012464;28;20034;-75
2023/04/29 05:17:23;;;;;;;28.05;18.25;;;8.80;99.90;;;;;;4993408;28;20137;-75
2023/04/29 05:19:49;;;;;;;29.05;19.20;;;8.80;99.90;;;;;;5006496;28;20124;-76
2023/04/29 05:22:15;;;;;;;25.55;18.20;;;8.80;99.90;;;;;;5011321;28;20030;-76
2023/04/29 05:24:41;;;;;;;31.08;18.02;;;8.90;99.90;;;;;;4995544;28;20042;-75
2023/04/29 05:27:07;;;;;;;29.23;19.00;;;8.90;99.90;;;;;;5011980;28;20478;-75
2023/04/29 05:29:32;;;;;;;26.88;18.13;;;8.90;99.90;;;;;;5011062;28;20354;-75
2023/04/29 05:31:58;;;;;;;29.73;19.13;;;8.90;99.90;;;;;;5010410;28;20052;-75
2023/04/29 05:34:24;;;;;;;28.33;17.52;;;8.90;99.90;;;;;;4995580;28;20677;-75
2023/04/29 05:36:50;;;;;;;24.48;17.88;;;8.90;99.90;;;;;;5011012;28;20096;-75
2023/04/29 05:39:16;;;;;;;25.15;17.90;;;8.90;99.90;;;;;;4995490;28;20034;-75
2023/04/29 05:41:42;;;;;;;26.98;17.25;;;9.00;99.90;;;;;;5011099;28;20460;-75
2023/04/29 05:44:08;;;;;;;25.38;16.38;;;9.00;99.90;;;;;;5012043;28;20072;-74
2023/04/29 05:46:34;;;;;;;21.25;15.10;;;9.00;99.90;;;;;;5010933;28;20073;-74
2023/04/29 05:48:59;;;;;;;24.20;16.17;;;9.00;99.90;;;;;;5011573;28;20042;-74
2023/04/29 05:51:27;;;;;;;25.80;15.75;;;9.00;99.90;;;;;;5011052;28;20651;-74
2023/04/29 05:53:53;;;;;;;25.40;15.30;;;9.00;99.90;;;;;;5007044;28;20042;-75
2023/04/29 05:56:19;;;;;;;22.60;15.23;;;9.00;99.90;;;;;;5007237;28;20632;-74
2023/04/29 05:58:45;;;;;;;22.70;14.40;;;9.10;99.90;;;;;;5011584;28;20124;-75
2023/04/29 06:01:10;;;;;;;20.90;13.93;;;9.10;99.90;;;;;;5010618;28;20042;-75
2023/04/29 06:03:36;;;;;;;21.77;14.80;;;9.00;99.90;;;;;;4985190;28;20030;-74
2023/04/29 06:06:02;;;;;;;21.00;14.68;;;9.10;99.90;;;;;;5010755;28;20062;-74
2023/04/29 06:08:28;;;;;;;18.80;14.05;;;9.10;99.90;;;;;;5011047;28;20497;-75
2023/04/29 06:10:54;;;;;;;21.92;13.05;;;9.20;99.90;;;;;;5009734;28;20062;-75
2023/04/29 06:13:20;;;;;;;25.52;14.15;;;9.20;99.90;;;;;;5027250;28;20616;-74
2023/04/29 06:15:46;;;;;;;18.75;14.05;;;9.20;99.90;;;;;;5011064;28;20045;-75
2023/04/29 06:18:12;;;;;;;20.42;13.80;;;9.30;99.90;;;;;;5008545;28;20033;-75
2023/04/29 06:20:37;;;;;;;20.58;14.18;;;9.40;99.90;;;;;;5011176;28;20041;-75
2023/04/29 06:23:04;;;;;;;17.88;12.93;;;9.40;99.90;;;;;;5010327;28;20038;-74
2023/04/29 06:25:30;;;;;;;20.08;13.00;;;9.50;99.90;;;;;;5009960;28;20044;-75
2023/04/29 06:27:59;;;;;;;19.83;13.48;;;9.50;99.90;;;;;;5006923;28;20045;-75
2023/04/29 06:30:25;;;;;;;19.13;13.75;;;9.50;99.90;;;;;;5010731;28;20041;-75
2023/04/29 06:32:52;;;;;;;17.92;12.52;;;9.50;99.90;;;;;;5005941;28;20045;-75
2023/04/29 06:35:18;;;;;;;18.40;12.45;;;9.60;99.90;;;;;;5010540;28;20052;-75
2023/04/29 06:37:43;;;;;;;19.60;12.82;;;9.60;99.90;;;;;;5010087;28;20034;-75
2023/04/29 06:40:10;;;;;;;18.98;13.27;;;9.60;99.90;;;;;;5005266;28;20457;-75
2023/04/29 06:42:36;;;;;;;19.20;12.48;;;9.70;99.90;;;;;;4993963;28;20042;-75
2023/04/29 06:45:02;;;;;;;16.63;12.35;;;9.80;99.90;;;;;;5010450;28;20411;-75
2023/04/29 06:47:28;;;;;;;22.55;13.00;;;9.90;99.90;;;;;;5009468;28;20137;-75
2023/04/29 06:49:53;;;;;;;19.52;12.20;;;9.90;99.90;;;;;;5009850;28;20046;-75
2023/04/29 06:52:19;;;;;;;15.93;12.10;;;10.10;99.90;;;;;;5009347;28;20034;-75
2023/04/29 06:54:45;;;;;;;21.02;12.77;;;10.20;99.90;;;;;;4993257;28;20494;-75
2023/04/29 06:57:11;;;;;;;16.98;11.55;;;10.30;99.90;;;;;;5009391;28;20034;-75
2023/04/29 06:59:36;;;;;;;17.40;12.63;;;10.40;99.90;;;;;;5009816;28;20042;-75
2023/04/29 07:02:02;;;;;;;18.83;12.15;;;10.40;99.90;;;;;;5008797;28;20068;-75
2023/04/29 07:04:28;;;;;;;15.75;11.10;;;10.60;99.90;;;;;;5025740;28;20046;-75
2023/04/29 07:06:54;;;;;;;15.20;10.80;;;10.70;99.90;;;;;;4992682;28;20050;-75
2023/04/29 07:09:22;;;;;;;14.73;10.93;;;10.80;99.90;;;;;;5009448;28;20520;-75
2023/04/29 07:11:48;;;;;;;15.30;11.25;;;10.90;99.90;;;;;;5008847;28;20509;-75
2023/04/29 07:14:14;;;;;;;13.60;10.52;;;11.00;99.90;;;;;;5009342;28;20137;-75
2023/04/29 07:16:40;;;;;;;12.35;10.32;;;11.00;99.90;;;;;;5021030;28;20042;-75
2023/04/29 07:19:06;;;;;;;14.05;11.18;;;11.00;99.90;;;;;;5004718;28;20052;-69
2023/04/29 07:21:32;;;;;;;13.93;10.43;;;11.20;99.90;;;;;;5010297;28;20044;-68
2023/04/29 07:23:59;;;;;;;17.02;10.50;;;11.50;99.90;;;;;;5011060;28;20125;-69
2023/04/29 07:26:25;;;;;;;15.90;10.30;;;11.70;99.90;;;;;;5007809;28;20054;-68
2023/04/29 07:28:51;;;;;;;16.00;9.57;;;11.90;99.90;;;;;;5008871;28;20038;-69
2023/04/29 07:31:17;;;;;;;13.38;10.25;;;12.10;99.90;;;;;;5018300;28;20046;-69
2023/04/29 07:33:44;;;;;;;14.93;9.65;;;12.20;99.90;;;;;;5006877;28;20046;-69
2023/04/29 07:36:10;;;;;;;15.63;10.20;;;12.40;99.90;;;;;;5007941;28;20085;-69
2023/04/29 07:38:35;;;;;;;13.95;9.95;;;12.50;99.90;;;;;;5010450;28;20432;-69
2023/04/29 07:41:03;;;;;;;13.57;9.57;;;12.70;99.90;;;;;;5025714;28;20497;-70
2023/04/29 07:43:29;;;;;;;14.23;8.95;;;13.10;99.90;;;;;;5010784;28;20045;-72
2023/04/29 07:45:55;;;;;;;13.95;8.80;;;13.50;99.90;;;;;;5009195;28;20092;-72
2023/04/29 07:48:21;;;;;;;11.95;9.00;;;14.10;99.90;;;;;;5025067;28;20076;-72
2023/04/29 07:50:46;;;;;;;12.73;9.55;;;14.40;99.90;;;;;;5024151;28;20069;-72
2023/04/29 07:53:13;;;;;;;13.48;9.65;;;14.50;99.90;;;;;;5025320;28;20042;-72
2023/04/29 07:55:39;;;;;;;13.48;8.27;;;14.90;99.90;;;;;;5025113;28;20048;-75
2023/04/29 07:58:04;;;;;;;15.50;10.68;;;15.30;99.90;;;;;;4992114;28;20065;-76
2023/04/29 08:00:30;;;;;;;10.20;8.75;;;15.50;99.90;;;;;;5008773;28;20512;-76
2023/04/29 08:02:56;;;;;;;12.63;8.57;;;15.70;99.90;;;;;;5007543;28;20129;-76
2023/04/29 08:05:23;;;;;;;12.20;8.52;;;15.90;99.90;;;;;;5024747;28;20076;-76
2023/04/29 08:07:49;;;;;;;11.93;8.77;;;16.00;99.90;;;;;;5007978;28;20069;-76
2023/04/29 08:10:16;;;;;;;11.63;8.07;;;16.50;99.90;;;;;;5008481;28;20529;-76
2023/04/29 08:12:45;;;;;;;15.02;8.77;;;16.60;99.90;;;;;;4991781;28;20133;-73
2023/04/29 08:15:11;;;;;;;13.10;8.32;;;17.00;99.90;;;;;;5024653;28;20077;-75
2023/04/29 08:17:36;;;;;;;10.52;7.57;;;17.10;99.90;;;;;;4988955;28;20536;-74
2023/04/29 08:20:02;;;;;;;10.40;7.53;;;17.10;99.90;;;;;;5024542;28;20041;-75
2023/04/29 08:22:28;;;;;;;11.35;7.95;;;17.20;99.90;;;;;;5024289;28;20182;-75
2023/04/29 08:24:54;;;;;;;10.98;7.75;;;17.10;99.90;;;;;;4991847;28;20547;-75
2023/04/29 08:27:20;;;;;;;9.85;7.85;;;17.20;99.90;;;;;;5004866;28;20049;-76
2023/04/29 08:29:46;;;;;;;23.85;21.38;;;17.50;99.90;;;;;;4991722;28;20061;-75
2023/04/29 08:32:12;;;;;;;12.48;8.40;;;17.70;99.90;;;;;;5006525;28;20441;-75
2023/04/29 08:34:40;;;;;;;9.07;7.13;;;17.60;99.90;;;;;;5024988;28;20233;-76
2023/04/29 08:37:06;;;;;;;9.38;7.20;;;17.70;99.90;;;;;;5007670;28;20053;-76
2023/04/29 08:39:31;;;;;;;9.27;7.85;;;18.10;99.90;;;;;;5024272;28;20030;-76
2023/04/29 08:41:58;;;;;;;10.75;7.32;;;18.40;99.90;;;;;;5022842;28;20165;-76
2023/04/29 08:44:26;;;;;;;8.98;7.45;;;18.10;99.90;;;;;;4991678;28;20046;-76
2023/04/29 08:46:54;;;;;;;9.60;8.23;;;17.60;99.90;;;;;;5006677;28;20132;-76
2023/04/29 08:49:20;;;;;;;11.30;8.32;;;17.00;99.90;;;;;;5028702;28;20188;-76
2023/04/29 08:51:52;;;;;;;7.97;6.75;;;16.30;99.90;;;;;;5027964;28;20132;-77
2023/04/29 08:54:17;;;;;;;10.43;6.10;;;16.00;99.90;;;;;;5028814;28;20041;-76
2023/04/29 08:56:46;;;;;;;8.32;6.85;;;16.30;99.90;;;;;;5025792;28;20532;-76
2023/04/29 08:59:14;;;;;;;7.30;6.50;;;16.80;99.90;;;;;;5012015;28;20135;-77
2023/04/29 09:01:42;;;;;;;9.10;6.20;;;16.80;99.90;;;;;;5000684;28;20073;-76
2023/04/29 09:04:25;;;;;;;10.38;6.28;;;16.50;99.90;;;;;;4995990;28;20377;-76
2023/04/29 09:06:54;;;;;;;8.52;6.53;;;16.10;99.90;;;;;;5027778;28;20554;-76
2023/04/29 09:09:20;;;;;;;10.98;6.13;;;15.90;99.90;;;;;;5011562;28;20057;-76
2023/04/29 09:11:46;;;;;;;7.82;6.47;;;16.10;99.90;;;;;;4994746;28;20050;-76
2023/04/29 09:14:14;;;;;;;11.30;6.68;;;16.50;99.90;;;;;;5027729;28;20073;-76
2023/04/29 09:16:39;;;;;;;9.57;7.03;;;16.70;99.90;;;;;;5000604;28;20442;-77
2023/04/29 09:19:05;;;;;;;8.85;6.03;;;17.00;99.90;;;;;;5026916;28;20038;-77
2023/04/29 09:21:31;;;;;;;8.23;5.90;;;17.40;99.90;;;;;;5011250;28;20859;-78
2023/04/29 09:24:01;;;;;;;9.10;5.80;;;17.80;99.90;;;;;;5007336;28;20038;-77
2023/04/29 09:26:39;;;;;;;8.80;5.50;;;18.10;99.90;;;;;;5026371;28;20056;-77
2023/04/29 09:29:06;;;;;;;8.23;4.90;;;18.30;99.90;;;;;;5003974;28;20056;-77
2023/04/29 09:31:32;;;;;;;7.90;4.90;;;18.40;99.90;;;;;;5010617;28;20042;-77
2023/04/29 09:33:58;;;;;;;8.50;5.13;;;18.10;99.90;;;;;;5011699;28;20061;-76
2023/04/29 09:36:57;;;;;;;5.72;4.78;;;17.50;99.90;;;;;;5027492;28;20478;-77
2023/04/29 09:39:24;;;;;;;6.32;5.10;;;17.30;99.10;;;;;;5007695;28;20050;-77
2023/04/29 09:41:52;;;;;;;6.45;4.75;;;17.20;99.90;;;;;;5027926;28;20438;-76
2023/04/29 09:44:21;;;;;;;7.35;5.28;;;17.60;99.90;;;;;;5008188;28;20049;-77
2023/04/29 09:47:01;;;;;;;8.98;5.00;;;17.80;99.90;;;;;;4988941;28;20046;-78
2023/04/29 09:49:31;;;;;;;7.38;5.30;;;17.70;99.10;;;;;;5012438;28;20042;-77
2023/04/29 09:52:17;;;;;;;8.25;4.85;;;17.50;99.90;;;;;;4999460;28;20043;-77
2023/04/29 09:54:43;;;;;;;5.65;4.72;;;17.70;98.20;;;;;;5005999;28;20061;-78
2023/04/29 09:57:11;;;;;;;7.10;5.22;;;17.90;99.50;;;;;;4995390;28;20271;-78
2023/04/29 09:59:39;;;;;;;8.77;5.03;;;18.10;99.80;;;;;;4995001;28;20093;-78
2023/04/29 10:02:16;;;;;;;5.93;4.15;;;18.30;98.50;;;;;;5011688;28;20045;-78
2023/04/29 10:04:44;;;;;;;8.32;4.63;;;18.40;99.70;;;;;;5021786;28;20508;-78
2023/04/29 10:07:15;;;;;;;6.25;5.00;;;18.90;99.90;;;;;;5027623;28;20094;-79
2023/04/29 10:09:42;;;;;;;6.43;4.68;;;19.20;98.30;;;;;;5012040;28;20052;-78
2023/04/29 10:12:08;;;;;;;7.57;5.18;;;18.90;96.80;;;;;;5004040;28;20080;-79
2023/04/29 10:14:46;;;;;;;8.13;6.82;;;18.40;96.30;;;;;;5029185;28;20564;-78
2023/04/29 10:17:40;;;;;;;7.82;5.53;;;17.60;96.10;;;;;;5007807;28;20096;-79
2023/04/29 10:20:08;;;;;;;8.40;5.03;;;17.10;96.50;;;;;;5005284;28;20572;-79
2023/04/29 10:22:48;;;;;;;6.28;4.57;;;17.30;97.50;;;;;;5026817;28;20052;-78
2023/04/29 10:25:19;;;;;;;8.07;5.20;;;17.20;94.40;;;;;;5010982;28;20121;-78
2023/04/29 10:27:47;;;;;;;5.85;5.13;;;17.30;96.30;;;;;;4990525;28;20088;-79
2023/04/29 10:30:15;;;;;;;10.13;5.68;;;16.90;95.40;;;;;;5028716;28;20042;-79
2023/04/29 10:32:42;;;;;;;7.72;5.35;;;16.70;96.40;;;;;;5027205;28;20497;-78
2023/04/29 10:35:09;;;;;;;8.52;6.80;;;16.80;97.10;;;;;;4996360;28;20034;-78
2023/04/29 10:37:38;;;;;;;6.38;5.35;;;17.20;96.80;;;;;;5028865;28;20080;-78
2023/04/29 10:40:25;;;;;;;8.43;5.57;;;17.80;95.90;;;;;;4995988;28;20052;-77
2023/04/29 10:42:52;;;;;;;8.15;4.70;;;18.00;92.90;;;;;;5010078;28;20033;-77
2023/04/29 10:45:22;;;;;;;9.10;5.90;;;18.30;94.90;;;;;;5027791;28;20338;-77
2023/04/29 10:48:07;;;;;;;7.07;4.47;;;18.70;92.10;;;;;;5019375;28;20045;-77
2023/04/29 10:50:36;;;;;;;7.68;4.78;;;18.90;89.30;;;;;;5009671;28;20049;-79
2023/04/29 10:53:03;;;;;;;5.53;4.72;;;18.70;91.10;;;;;;5008415;28;20099;-78
2023/04/29 10:55:30;;;;;;;6.28;3.92;;;18.80;92.00;;;;;;5027527;28;20073;-79
2023/04/29 10:57:56;;;;;;;6.07;4.28;;;18.90;90.10;;;;;;5026385;28;20132;-78
2023/04/29 11:00:26;;;;;;;7.55;3.80;;;18.80;89.10;;;;;;5028320;28;20060;-78
2023/04/29 11:02:57;;;;;;;5.75;3.83;;;19.00;89.70;;;;;;5010646;28;20038;-78
2023/04/29 11:05:36;;;;;;;5.18;3.30;;;19.10;81.50;;;;;;4995707;28;20261;-79
2023/04/29 11:08:22;;;;;;;8.13;3.63;;;19.00;81.00;;;;;;5029146;28;20072;-79
2023/04/29 11:11:08;;;;;;;6.80;3.47;;;19.10;80.90;;;;;;5016995;28;20121;-78
2023/04/29 11:13:38;;;;;;;4.55;3.42;;;19.10;83.00;;;;;;5011296;28;20046;-79
2023/04/29 11:16:11;;;;;;;4.80;3.50;;;19.20;78.70;;;;;;5011268;28;20052;-79
2023/04/29 11:19:07;;;;;;;5.13;3.53;;;19.00;78.80;;;;;;5011605;28;20092;-79
2023/04/29 11:21:35;;;;;;;6.07;3.75;;;19.10;76.30;;;;;;5011077;28;20041;-79
2023/04/29 11:24:02;;;;;;;3.95;3.22;;;19.20;80.80;;;;;;5002442;28;20073;-79
2023/04/29 11:26:28;;;;;;;7.20;3.65;;;19.40;80.10;;;;;;5013307;28;20167;-78
2023/04/29 11:28:56;;;;;;;6.18;3.35;;;19.40;81.80;;;;;;5013300;28;20099;-78
2023/04/29 11:31:34;;;;;;;5.15;3.63;;;19.50;77.50;;;;;;5000916;28;20050;-79
2023/04/29 11:34:00;;;;;;;5.53;3.47;;;19.70;77.00;;;;;;5012514;28;20053;-79
2023/04/29 11:36:26;;;;;;;6.68;3.47;;;19.70;77.20;;;;;;5030205;28;20038;-79
2023/04/29 11:38:52;;;;;;;6.93;3.20;;;19.60;77.30;;;;;;5029710;28;20088;-79
2023/04/29 11:41:18;;;;;;;4.55;2.47;;;19.80;78.50;;;;;;5002572;28;20574;-79
2023/04/29 11:43:58;;;;;;;5.85;3.10;;;20.00;79.20;;;;;;5005512;28;20053;-79
2023/04/29 11:46:23;;;;;;;5.85;3.28;;;20.30;72.00;;;;;;5023615;28;20038;-79
2023/04/29 11:48:49;;;;;;;7.13;3.22;;;20.20;74.20;;;;;;5012485;28;20382;-79
2023/04/29 11:51:18;;;;;;;4.63;3.35;;;20.00;73.00;;;;;;4996952;28;20084;-78
2023/04/29 11:53:44;;;;;;;6.25;3.33;;;20.00;74.60;;;;;;4997214;28;20462;-79
2023/04/29 11:56:10;;;;;;;6.03;2.50;;;20.20;75.40;;;;;;5014035;28;20049;-78
2023/04/29 11:58:37;;;;;;;7.72;2.95;;;20.50;75.90;;;;;;5009479;28;20030;-78
2023/04/29 12:01:06;;;;;;;4.38;2.45;;;20.70;73.40;;;;;;4985710;28;20461;-79
2023/04/29 12:03:32;;;;;;;5.63;2.85;;;20.60;72.10;;;;;;5010474;28;20038;-78
2023/04/29 12:06:00;;;;;;;6.38;2.60;;;20.40;72.10;;;;;;5015501;28;20056;-79
2023/04/29 12:08:27;;;;;;;4.55;2.75;;;20.30;74.30;;;;;;4999020;28;20117;-78
2023/04/29 12:10:58;;;;;;;5.25;3.10;;;20.40;74.80;;;;;;5014402;28;20096;-79
2023/04/29 12:13:30;;;;;;;4.55;3.13;;;20.80;72.10;;;;;;5007843;28;20054;-79
2023/04/29 12:15:57;;;;;;;8.45;2.90;;;20.90;70.50;;;;;;4996848;28;20111;-78
2023/04/29 12:18:26;;;;;;;7.05;2.90;;;20.90;71.00;;;;;;5027818;28;20108;-79
2023/04/29 12:20:53;;;;;;;5.47;3.45;;;21.10;72.60;;;;;;4997812;28;20073;-80
2023/04/29 12:23:25;;;;;;;5.75;3.08;;;21.10;69.40;;;;;;5013235;28;20115;-79
2023/04/29 12:25:56;;;;;;;4.47;2.75;;;21.20;72.70;;;;;;5030708;28;20121;-79
2023/04/29 12:28:23;;;;;;;4.57;2.78;;;21.70;71.20;;;;;;5011427;28;20038;-79
2023/04/29 12:30:50;;;;;;;4.38;2.70;;;21.90;68.60;;;;;;5008908;28;20394;-78
2023/04/29 12:33:25;;;;;;;4.88;2.50;;;22.00;67.10;;;;;;4997696;28;20491;-78
2023/04/29 12:35:53;;;;;;;3.95;2.80;;;21.90;67.40;;;;;;5015024;28;20045;-79
2023/04/29 12:38:25;;;;;;;5.85;3.15;;;21.40;64.90;;;;;;5030147;28;20065;-80
2023/04/29 12:40:51;;;;;;;4.63;2.80;;;21.20;66.00;;;;;;5002318;28;20045;-80
2023/04/29 12:43:17;;;;;;;3.88;2.17;;;21.10;66.70;;;;;;4991116;28;20102;-79